createdAt,value
2017-12-02T00:00:15.903Z,45.56
2017-12-02T00:02:42.521Z,46.40
2017-12-02T00:05:09.255Z,45.60
2017-12-02T00:07:36.092Z,44.91
2017-12-02T00:10:02.839Z,44.46
2017-12-02T00:12:28.615Z,44.48
2017-12-02T00:14:54.381Z,44.53
2017-12-02T00:17:20.147Z,43.02
2017-12-02T00:19:46.764Z,44.04
2017-12-02T00:22:12.551Z,45.06
2017-12-02T00:24:38.323Z,44.78
2017-12-02T00:27:04.100Z,44.20
2017-12-02T00:29:30.820Z,44.41
2017-12-02T00:31:57.606Z,44.44
2017-12-02T00:34:24.532Z,44.71
2017-12-02T00:36:51.194Z,42.32
2017-12-02T00:39:17.079Z,43.99
2017-12-02T00:41:42.887Z,44.28
2017-12-02T00:44:09.519Z,44.20
2017-12-02T00:46:36.336Z,43.29
2017-12-02T00:49:02.107Z,44.33
2017-12-02T00:51:27.893Z,43.70
2017-12-02T00:53:54.675Z,43.02
2017-12-02T00:56:20.492Z,42.47
2017-12-02T00:58:47.376Z,44.18
2017-12-02T01:01:13.181Z,43.63
2017-12-02T01:03:38.960Z,43.21
2017-12-02T01:06:04.748Z,43.07
2017-12-02T01:08:30.536Z,43.36
2017-12-02T01:10:56.329Z,43.82
2017-12-02T01:13:22.096Z,43.41
2017-12-02T01:15:47.919Z,42.32
2017-12-02T01:18:13.718Z,43.39
2017-12-02T01:20:40.396Z,43.42
2017-12-02T01:23:06.174Z,43.64
2017-12-02T01:25:31.968Z,44.58
2017-12-02T01:27:57.754Z,43.50
2017-12-02T01:30:24.592Z,43.24
2017-12-02T01:32:50.367Z,42.77
2017-12-02T01:35:16.136Z,42.48
2017-12-02T01:37:41.920Z,43.08
2017-12-02T01:40:07.699Z,43.26
2017-12-02T01:42:33.472Z,43.00
2017-12-02T01:44:59.289Z,44.14
2017-12-02T01:47:26.000Z,43.01
2017-12-02T01:49:52.748Z,42.61
2017-12-02T01:52:19.487Z,42.26
2017-12-02T01:54:45.267Z,43.00
2017-12-02T01:57:11.844Z,42.67
2017-12-02T01:59:37.620Z,43.27
2017-12-02T02:02:03.423Z,42.83
2017-12-02T02:04:29.203Z,43.04
2017-12-02T02:06:54.978Z,43.61
2017-12-02T02:09:20.755Z,42.39
2017-12-02T02:11:46.530Z,42.65
2017-12-02T02:14:12.337Z,42.33
2017-12-02T02:16:38.116Z,44.19
2017-12-02T02:19:03.931Z,46.18
2017-12-02T02:21:29.706Z,45.59
2017-12-02T02:23:55.467Z,45.91
2017-12-02T02:26:21.287Z,44.50
2017-12-02T02:28:48.028Z,44.40
2017-12-02T02:31:14.781Z,43.55
2017-12-02T02:33:41.546Z,45.43
2017-12-02T02:36:07.322Z,44.87
2017-12-02T02:38:34.059Z,44.48
2017-12-02T02:40:59.838Z,43.70
2017-12-02T02:43:25.612Z,44.11
2017-12-02T02:45:51.440Z,44.47
2017-12-02T02:48:18.255Z,43.49
2017-12-02T02:50:44.027Z,42.69
2017-12-02T02:53:09.836Z,44.86
2017-12-02T02:55:35.620Z,44.31
2017-12-02T02:58:02.239Z,44.66
2017-12-02T03:00:28.817Z,44.18
2017-12-02T03:02:54.589Z,44.18
2017-12-02T03:05:21.327Z,44.47
2017-12-02T03:07:48.124Z,44.52
2017-12-02T03:10:13.936Z,42.50
2017-12-02T03:12:40.614Z,43.04
2017-12-02T03:15:06.445Z,43.96
2017-12-02T03:17:33.085Z,44.03
2017-12-02T03:19:58.868Z,44.09
2017-12-02T03:22:24.690Z,43.73
2017-12-02T03:24:50.471Z,43.74
2017-12-02T03:27:16.250Z,43.00
2017-12-02T03:29:42.038Z,42.17
2017-12-02T03:32:07.820Z,44.90
2017-12-02T03:34:33.627Z,43.80
2017-12-02T03:36:59.407Z,44.06
2017-12-02T03:39:25.288Z,43.23
2017-12-02T03:41:52.088Z,44.55
2017-12-02T03:44:18.838Z,43.77
2017-12-02T03:46:44.666Z,43.00
2017-12-02T03:49:11.331Z,42.23
2017-12-02T03:51:37.131Z,43.27
2017-12-02T03:54:03.829Z,43.45
2017-12-02T03:56:29.642Z,42.68
2017-12-02T03:58:55.423Z,43.15
2017-12-02T04:01:22.079Z,43.15
2017-12-02T04:03:48.824Z,42.68
2017-12-02T04:06:15.706Z,42.29
2017-12-02T04:08:41.488Z,42.63
2017-12-02T04:11:08.126Z,43.26
2017-12-02T04:13:33.922Z,43.88
2017-12-02T04:16:00.547Z,43.56
2017-12-02T04:18:27.339Z,43.39
2017-12-02T04:20:53.144Z,42.74
2017-12-02T04:23:18.943Z,42.20
2017-12-02T04:25:45.749Z,42.76
2017-12-02T04:28:12.551Z,42.17
2017-12-02T04:30:38.367Z,42.23
2017-12-02T04:33:05.126Z,43.00
2017-12-02T04:35:30.978Z,46.39
2017-12-02T04:37:57.596Z,44.40
2017-12-02T04:40:23.449Z,44.34
2017-12-02T04:42:49.232Z,43.68
2017-12-02T04:45:15.016Z,44.74
2017-12-02T04:47:40.796Z,44.37
2017-12-02T04:50:07.411Z,44.35
2017-12-02T04:52:33.216Z,44.40
2017-12-02T04:54:58.991Z,43.44
2017-12-02T04:57:24.764Z,45.88
2017-12-02T04:59:50.548Z,44.17
2017-12-02T05:02:16.327Z,44.75
2017-12-02T05:04:42.105Z,43.63
2017-12-02T05:07:07.907Z,44.40
2017-12-02T05:09:34.642Z,44.82
2017-12-02T05:12:00.420Z,43.65
2017-12-02T05:14:27.111Z,42.92
2017-12-02T05:16:52.879Z,43.53
2017-12-02T05:19:19.645Z,44.05
2017-12-02T05:21:45.419Z,44.73
2017-12-02T05:24:11.197Z,45.77
2017-12-02T05:26:36.976Z,44.42
2017-12-02T05:29:02.760Z,45.03
2017-12-02T05:31:28.539Z,44.80
2017-12-02T05:33:54.319Z,42.67
2017-12-02T05:36:20.091Z,43.85
2017-12-02T05:38:45.871Z,44.63
2017-12-02T05:41:11.642Z,44.25
2017-12-02T05:43:37.430Z,44.43
2017-12-02T05:46:03.212Z,44.32
2017-12-02T05:48:28.988Z,43.37
2017-12-02T05:50:54.768Z,43.30
2017-12-02T05:53:20.539Z,42.80
2017-12-02T05:55:46.311Z,45.08
2017-12-02T05:58:12.144Z,43.99
2017-12-02T06:00:37.938Z,44.01
2017-12-02T06:03:03.718Z,44.39
2017-12-02T06:05:29.491Z,44.24
2017-12-02T06:07:55.262Z,43.20
2017-12-02T06:10:21.931Z,42.43
2017-12-02T06:12:47.698Z,42.74
2017-12-02T06:15:14.331Z,43.17
2017-12-02T06:17:40.139Z,42.58
2017-12-02T06:20:07.017Z,42.78
2017-12-02T06:22:32.799Z,43.12
2017-12-02T06:24:59.575Z,44.58
2017-12-02T06:27:25.343Z,44.63
2017-12-02T06:29:51.154Z,44.92
2017-12-02T06:32:17.875Z,45.55
2017-12-02T06:34:43.775Z,44.78
2017-12-02T06:37:09.555Z,44.53
2017-12-02T06:39:36.259Z,44.99
2017-12-02T06:42:03.095Z,43.38
2017-12-02T06:44:28.893Z,42.68
2017-12-02T06:46:54.724Z,44.55
2017-12-02T06:49:20.497Z,43.79
2017-12-02T06:51:46.317Z,43.34
2017-12-02T06:54:12.396Z,44.20
2017-12-02T06:56:39.046Z,42.51
2017-12-02T06:59:04.868Z,43.03
2017-12-02T07:01:31.544Z,43.31
2017-12-02T07:03:58.280Z,42.98
2017-12-02T07:06:25.071Z,42.66
2017-12-02T07:08:51.839Z,43.35
2017-12-02T07:11:18.543Z,42.48
2017-12-02T07:13:45.315Z,42.51
2017-12-02T07:16:11.107Z,43.48
2017-12-02T07:18:36.900Z,43.07
2017-12-02T07:21:02.692Z,42.90
2017-12-02T07:23:28.534Z,42.95
2017-12-02T07:25:54.334Z,42.98
2017-12-02T07:28:20.125Z,42.40
2017-12-02T07:30:46.728Z,43.50
2017-12-02T07:33:12.504Z,43.98
2017-12-02T07:35:38.327Z,43.31
2017-12-02T07:38:04.107Z,43.24
2017-12-02T07:40:29.888Z,44.35
2017-12-02T07:42:55.667Z,42.97
2017-12-02T07:45:22.392Z,42.79
2017-12-02T07:47:48.168Z,42.94
2017-12-02T07:50:15.534Z,43.92
2017-12-02T07:52:41.432Z,42.81
2017-12-02T07:55:08.000Z,42.41
2017-12-02T07:57:33.823Z,42.38
2017-12-02T08:00:00.470Z,43.43
2017-12-02T08:02:26.238Z,44.39
2017-12-02T08:04:52.044Z,44.11
2017-12-02T08:07:18.818Z,43.63
2017-12-02T08:09:44.760Z,42.51
2017-12-02T08:12:10.564Z,46.73
2017-12-02T08:14:37.303Z,44.65
2017-12-02T08:17:04.119Z,44.74
2017-12-02T08:19:29.900Z,44.00
2017-12-02T08:21:56.600Z,43.32
2017-12-02T08:24:23.312Z,43.13
2017-12-02T08:26:49.114Z,43.64
2017-12-02T08:29:14.899Z,43.45
2017-12-02T08:31:41.551Z,43.38
2017-12-02T08:34:08.172Z,44.13
2017-12-02T08:36:33.939Z,43.46
2017-12-02T08:39:00.493Z,43.67
2017-12-02T08:41:27.079Z,43.59
2017-12-02T08:43:53.774Z,43.25
2017-12-02T08:46:19.559Z,43.59
2017-12-02T08:48:46.178Z,44.71
2017-12-02T08:51:11.961Z,44.23
2017-12-02T08:53:38.623Z,44.07
2017-12-02T08:56:04.399Z,43.82
2017-12-02T08:58:30.171Z,42.71
2017-12-02T09:00:55.943Z,43.15
2017-12-02T09:03:21.828Z,42.96
2017-12-02T09:05:47.607Z,43.31
2017-12-02T09:08:13.588Z,43.21
2017-12-02T09:10:39.367Z,43.51
2017-12-02T09:13:06.111Z,42.82
2017-12-02T09:15:31.892Z,43.37
2017-12-02T09:17:57.688Z,43.48
2017-12-02T09:20:23.463Z,42.65
2017-12-02T09:22:50.196Z,42.48
2017-12-02T09:25:16.791Z,43.05
2017-12-02T09:27:43.582Z,43.41
2017-12-02T09:30:09.376Z,43.62
2017-12-02T09:32:35.191Z,43.27
2017-12-02T09:35:01.960Z,42.84
2017-12-02T09:37:27.872Z,42.86
2017-12-02T09:39:53.652Z,43.72
2017-12-02T09:42:19.505Z,43.17
2017-12-02T09:44:45.279Z,43.12
2017-12-02T09:47:11.094Z,43.93
2017-12-02T09:49:36.893Z,43.66
2017-12-02T09:52:02.716Z,43.42
2017-12-02T09:54:28.493Z,44.03
2017-12-02T09:56:55.073Z,44.10
2017-12-02T09:59:20.849Z,44.80
2017-12-02T10:01:46.627Z,43.78
2017-12-02T10:04:12.447Z,44.02
2017-12-02T10:06:39.167Z,43.20
2017-12-02T10:09:04.975Z,44.82
2017-12-02T10:11:30.752Z,44.30
2017-12-02T10:13:56.567Z,43.96
2017-12-02T10:16:22.347Z,44.09
2017-12-02T10:18:48.123Z,43.54
2017-12-02T10:21:13.903Z,43.02
2017-12-02T10:23:39.682Z,43.45
2017-12-02T10:26:05.460Z,45.00
2017-12-02T10:28:31.254Z,45.58
2017-12-02T10:30:57.047Z,45.22
2017-12-02T10:33:24.870Z,44.82
2017-12-02T10:35:50.811Z,44.17
2017-12-02T10:38:16.643Z,42.89
2017-12-02T10:40:42.427Z,44.11
2017-12-02T10:43:08.257Z,44.05
2017-12-02T10:45:35.079Z,44.38
2017-12-02T10:48:02.015Z,43.97
2017-12-02T10:50:28.744Z,43.75
2017-12-02T10:52:55.009Z,43.59
2017-12-02T10:55:21.008Z,44.09
2017-12-02T10:57:47.877Z,43.89
2017-12-02T11:00:14.575Z,44.51
2017-12-02T11:02:41.227Z,43.91
2017-12-02T11:05:07.012Z,43.90
2017-12-02T11:07:32.912Z,43.74
2017-12-02T11:09:58.747Z,43.76
2017-12-02T11:12:24.527Z,42.92
2017-12-02T11:14:50.527Z,44.28
2017-12-02T11:17:16.294Z,43.75
2017-12-02T11:19:42.077Z,44.32
2017-12-02T11:22:07.900Z,44.04
2017-12-02T11:24:34.685Z,44.69
2017-12-02T11:27:00.482Z,42.89
2017-12-02T11:29:26.324Z,43.68
2017-12-02T11:31:52.127Z,43.25
2017-12-02T11:34:17.992Z,43.79
2017-12-02T11:36:43.830Z,43.33
2017-12-02T11:39:10.585Z,44.14
2017-12-02T11:41:37.379Z,43.61
2017-12-02T11:44:03.155Z,44.80
2017-12-02T11:46:28.976Z,45.13
2017-12-02T11:48:54.816Z,43.58
2017-12-02T11:51:20.637Z,43.43
2017-12-02T11:53:46.420Z,44.08
2017-12-02T11:56:12.227Z,43.41
2017-12-02T11:58:38.012Z,44.48
2017-12-02T12:01:03.802Z,44.02
2017-12-02T12:03:29.574Z,44.14
2017-12-02T12:05:55.367Z,43.85
2017-12-02T12:08:21.161Z,43.28
2017-12-02T12:10:46.948Z,43.30
2017-12-02T12:13:12.919Z,44.26
2017-12-02T12:15:38.735Z,43.43
2017-12-02T12:18:04.511Z,42.44
2017-12-02T12:20:30.292Z,41.86
2017-12-02T12:22:57.000Z,41.33
2017-12-02T12:25:22.790Z,41.40
2017-12-02T12:27:48.667Z,41.63
2017-12-02T12:30:14.450Z,41.35
2017-12-02T12:32:40.392Z,41.34
2017-12-02T12:35:06.172Z,41.37
2017-12-02T12:37:31.991Z,41.81
2017-12-02T12:39:58.575Z,44.51
2017-12-02T12:42:25.475Z,43.62
2017-12-02T12:44:52.231Z,42.50
2017-12-02T12:47:19.055Z,42.42
2017-12-02T12:49:45.834Z,42.01
2017-12-02T12:52:11.623Z,42.78
2017-12-02T12:54:38.323Z,41.80
2017-12-02T12:57:04.951Z,41.65
2017-12-02T12:59:30.736Z,42.33
2017-12-02T13:01:56.524Z,42.04
2017-12-02T13:04:22.359Z,43.21
2017-12-02T13:06:48.932Z,42.27
2017-12-02T13:09:14.859Z,42.85
2017-12-02T13:11:40.635Z,42.19
2017-12-02T13:14:06.412Z,43.52
2017-12-02T13:16:32.215Z,44.00
2017-12-02T13:18:58.852Z,43.37
2017-12-02T13:21:25.615Z,43.27
2017-12-02T13:23:51.523Z,44.35
2017-12-02T13:26:17.295Z,42.43
2017-12-02T13:28:43.117Z,43.21
2017-12-02T13:31:08.891Z,43.87
2017-12-02T13:33:34.668Z,43.41
2017-12-02T13:36:00.451Z,43.10
2017-12-02T13:38:26.293Z,44.18
2017-12-02T13:40:53.019Z,42.72
2017-12-02T13:43:18.810Z,43.33
2017-12-02T13:45:45.509Z,43.32
2017-12-02T13:48:11.298Z,44.60
2017-12-02T13:50:37.184Z,44.20
2017-12-02T13:53:02.961Z,43.72
2017-12-02T13:55:28.777Z,42.95
2017-12-02T13:57:54.547Z,42.86
2017-12-02T14:00:21.432Z,44.45
2017-12-02T14:02:48.207Z,43.10
2017-12-02T14:05:14.049Z,43.64
2017-12-02T14:07:39.831Z,43.01
2017-12-02T14:10:05.628Z,44.71
2017-12-02T14:12:31.703Z,43.04
2017-12-02T14:14:57.483Z,43.29
2017-12-02T14:17:23.296Z,43.24
2017-12-02T14:19:49.074Z,43.47
2017-12-02T14:22:14.859Z,42.95
2017-12-02T14:24:40.631Z,43.02
2017-12-02T14:27:06.404Z,44.82
2017-12-02T14:29:33.075Z,43.62
2017-12-02T14:31:58.848Z,43.05
2017-12-02T14:34:24.652Z,43.74
2017-12-02T14:36:50.607Z,43.53
2017-12-02T14:39:16.554Z,42.70
2017-12-02T14:41:42.331Z,42.85
2017-12-02T14:44:08.104Z,45.65
2017-12-02T14:46:34.042Z,46.08
2017-12-02T14:48:59.822Z,45.05
2017-12-02T14:51:25.639Z,44.04
2017-12-02T14:53:52.434Z,43.42
2017-12-02T14:56:18.216Z,43.62
2017-12-02T14:58:44.003Z,42.98
2017-12-02T15:01:09.785Z,43.25
2017-12-02T15:03:35.775Z,42.97
2017-12-02T15:06:01.571Z,43.23
2017-12-02T15:08:27.372Z,42.88
2017-12-02T15:10:54.016Z,42.89
2017-12-02T15:13:19.788Z,43.23
2017-12-02T15:15:45.611Z,43.13
2017-12-02T15:18:11.387Z,43.79
2017-12-02T15:20:37.166Z,43.06
2017-12-02T15:23:02.936Z,42.94
2017-12-02T15:25:28.741Z,42.73
2017-12-02T15:27:54.516Z,42.90
2017-12-02T15:30:20.291Z,43.13
2017-12-02T15:32:46.923Z,43.50
2017-12-02T15:35:12.711Z,43.28
2017-12-02T15:37:38.489Z,44.72
2017-12-02T15:40:04.271Z,43.47
2017-12-02T15:42:30.079Z,44.51
2017-12-02T15:44:55.875Z,42.81
2017-12-02T15:47:21.651Z,43.67
2017-12-02T15:49:47.418Z,43.69
2017-12-02T15:52:13.238Z,42.56
2017-12-02T15:54:39.035Z,42.41
2017-12-02T15:57:05.796Z,42.29
2017-12-02T15:59:31.586Z,42.66
2017-12-02T16:01:57.359Z,42.75
2017-12-02T16:04:23.139Z,42.29
2017-12-02T16:06:48.932Z,42.27
2017-12-02T16:09:14.727Z,42.27
2017-12-02T16:11:40.510Z,42.78
2017-12-02T16:14:06.295Z,42.36
2017-12-02T16:16:32.138Z,42.53
2017-12-02T16:18:57.922Z,42.29
2017-12-02T16:21:23.736Z,42.34
2017-12-02T16:23:50.395Z,42.23
2017-12-02T16:26:16.203Z,42.33
2017-12-02T16:28:42.006Z,42.86
2017-12-02T16:31:07.792Z,42.39
2017-12-02T16:33:33.602Z,42.57
2017-12-02T16:35:59.382Z,42.57
2017-12-02T16:38:25.208Z,42.37
2017-12-02T16:40:51.012Z,42.35
2017-12-02T16:43:16.828Z,42.34
2017-12-02T16:45:42.623Z,42.34
2017-12-02T16:48:08.411Z,42.88
2017-12-02T16:50:34.203Z,42.68
2017-12-02T16:53:00.039Z,42.49
2017-12-02T16:55:26.802Z,42.69
2017-12-02T16:57:52.591Z,42.14
2017-12-02T17:00:18.411Z,42.02
2017-12-02T17:02:45.191Z,41.83
2017-12-02T17:05:11.999Z,42.13
2017-12-02T17:07:37.783Z,41.78
2017-12-02T17:10:03.591Z,41.70
2017-12-02T17:12:29.368Z,41.28
2017-12-02T17:14:55.139Z,41.67
2017-12-02T17:17:21.768Z,40.94
2017-12-02T17:19:47.543Z,41.04
2017-12-02T17:22:13.436Z,41.23
2017-12-02T17:24:39.241Z,41.39
2017-12-02T17:27:05.024Z,41.29
2017-12-02T17:29:30.804Z,40.91
2017-12-02T17:31:57.076Z,40.91
2017-12-02T17:34:23.712Z,41.50
2017-12-02T17:36:49.532Z,41.61
2017-12-02T17:39:15.304Z,41.64
2017-12-02T17:41:41.081Z,41.27
2017-12-02T17:44:06.883Z,40.79
2017-12-02T17:46:32.715Z,40.65
2017-12-02T17:48:58.757Z,40.48
2017-12-02T17:51:24.731Z,40.61
2017-12-02T17:53:50.613Z,40.59
2017-12-02T17:56:16.542Z,40.75
2017-12-02T17:58:42.468Z,40.59
2017-12-02T18:01:08.276Z,40.61
2017-12-02T18:03:34.063Z,40.72
2017-12-02T18:05:59.843Z,40.77
2017-12-02T18:08:25.620Z,40.95
2017-12-02T18:10:51.400Z,41.03
2017-12-02T18:13:17.220Z,41.08
2017-12-02T18:15:43.005Z,41.02
2017-12-02T18:18:08.782Z,41.13
2017-12-02T18:20:34.563Z,41.17
2017-12-02T18:23:00.327Z,41.21
2017-12-02T18:25:26.099Z,41.14
2017-12-02T18:27:51.997Z,40.89
2017-12-02T18:30:17.775Z,40.78
2017-12-02T18:32:43.552Z,40.97
2017-12-02T18:35:09.365Z,41.35
2017-12-02T18:37:35.144Z,41.08
2017-12-02T18:40:00.920Z,41.30
2017-12-02T18:42:26.694Z,40.84
2017-12-02T18:44:52.465Z,41.32
2017-12-02T18:47:18.267Z,41.26
2017-12-02T18:49:44.043Z,41.09
2017-12-02T18:52:09.807Z,41.16
2017-12-02T18:54:36.623Z,41.29
2017-12-02T18:57:03.226Z,41.39
2017-12-02T18:59:30.145Z,41.46
2017-12-02T19:01:55.918Z,42.05
2017-12-02T19:04:21.709Z,41.43
2017-12-02T19:06:47.505Z,41.39
2017-12-02T19:09:13.299Z,41.32
2017-12-02T19:11:40.274Z,41.30
2017-12-02T19:14:06.261Z,41.60
2017-12-02T19:16:32.980Z,41.44
2017-12-02T19:19:03.915Z,41.51
2017-12-02T19:21:29.763Z,41.61
2017-12-02T19:23:55.579Z,41.82
2017-12-02T19:26:21.422Z,41.70
2017-12-02T19:28:48.219Z,41.68
2017-12-02T19:31:14.223Z,41.58
2017-12-02T19:33:40.086Z,41.53
2017-12-02T19:36:05.858Z,41.43
2017-12-02T19:38:31.715Z,41.41
2017-12-02T19:40:57.614Z,41.60
2017-12-02T19:43:23.463Z,41.24
2017-12-02T19:45:49.259Z,41.59
2017-12-02T19:48:15.024Z,41.28
2017-12-02T19:50:42.899Z,41.09
2017-12-02T19:53:12.629Z,41.51
2017-12-02T19:55:42.771Z,41.47
2017-12-02T19:58:09.263Z,41.48
2017-12-02T20:00:38.098Z,41.79
2017-12-02T20:03:04.156Z,41.47
2017-12-02T20:05:30.998Z,41.63
2017-12-02T20:07:56.780Z,41.89
2017-12-02T20:10:22.611Z,41.91
2017-12-02T20:12:48.395Z,41.90
2017-12-02T20:15:14.173Z,41.84
2017-12-02T20:17:40.004Z,41.58
2017-12-02T20:20:05.792Z,42.34
2017-12-02T20:22:31.606Z,42.03
2017-12-02T20:24:58.391Z,41.85
2017-12-02T20:27:24.220Z,41.99
2017-12-02T20:29:50.293Z,41.65
2017-12-02T20:32:16.147Z,41.55
2017-12-02T20:34:41.919Z,41.94
2017-12-02T20:37:08.583Z,41.78
2017-12-02T20:39:34.361Z,41.74
2017-12-02T20:42:01.125Z,41.69
2017-12-02T20:44:27.240Z,41.71
2017-12-02T20:46:53.987Z,41.94
2017-12-02T20:49:20.765Z,42.25
2017-12-02T20:51:46.535Z,41.86
2017-12-02T20:54:12.310Z,41.66
2017-12-02T20:56:38.085Z,41.86
2017-12-02T20:59:04.711Z,41.67
2017-12-02T21:01:30.487Z,41.64
2017-12-02T21:03:57.254Z,41.62
2017-12-02T21:06:24.040Z,41.66
2017-12-02T21:08:50.775Z,41.61
2017-12-02T21:11:16.545Z,41.86
2017-12-02T21:13:42.323Z,41.80
2017-12-02T21:16:08.088Z,42.58
2017-12-02T21:18:34.742Z,41.87
2017-12-02T21:21:00.507Z,41.85
2017-12-02T21:23:26.311Z,41.72
2017-12-02T21:25:52.095Z,41.87
2017-12-02T21:28:17.892Z,42.15
2017-12-02T21:30:44.544Z,43.56
2017-12-02T21:33:11.277Z,42.92
2017-12-02T21:35:37.975Z,42.20
2017-12-02T21:38:04.682Z,42.73
2017-12-02T21:40:30.447Z,42.75
2017-12-02T21:42:57.190Z,41.55
2017-12-02T21:45:22.959Z,42.81
2017-12-02T21:47:48.762Z,43.33
2017-12-02T21:50:14.528Z,42.67
2017-12-02T21:52:41.244Z,42.20
2017-12-02T21:55:07.984Z,42.49
2017-12-02T21:57:33.767Z,41.94
2017-12-02T21:59:59.539Z,41.83
2017-12-02T22:02:26.194Z,42.59
2017-12-02T22:04:51.959Z,42.16
2017-12-02T22:07:17.777Z,42.13
2017-12-02T22:09:43.585Z,42.83
2017-12-02T22:12:09.363Z,41.70
2017-12-02T22:14:35.137Z,41.77
2017-12-02T22:17:01.819Z,42.01
2017-12-02T22:19:27.591Z,41.69
2017-12-02T22:21:53.359Z,42.44
2017-12-02T22:24:19.931Z,41.95
2017-12-02T22:26:45.697Z,41.73
2017-12-02T22:29:11.468Z,41.72
2017-12-02T22:31:37.248Z,41.97
2017-12-02T22:34:03.022Z,41.53
2017-12-02T22:36:28.787Z,41.42
2017-12-02T22:38:55.563Z,41.63
2017-12-02T22:41:22.179Z,42.18
2017-12-02T22:43:47.940Z,41.67
2017-12-02T22:46:13.839Z,42.14
2017-12-02T22:48:39.603Z,42.14
2017-12-02T22:51:05.378Z,42.40
2017-12-02T22:53:31.144Z,41.84
2017-12-02T22:55:56.916Z,41.74
2017-12-02T22:58:22.737Z,41.73
2017-12-02T23:00:48.538Z,41.57
2017-12-02T23:03:14.319Z,41.92
2017-12-02T23:05:40.127Z,41.86
2017-12-02T23:08:06.059Z,42.72
2017-12-02T23:10:31.835Z,43.36
2017-12-02T23:12:57.615Z,42.31
2017-12-02T23:15:23.379Z,42.39
2017-12-02T23:17:49.179Z,42.54
2017-12-02T23:20:17.570Z,41.89
2017-12-02T23:22:43.371Z,43.04
2017-12-02T23:25:09.148Z,41.97
2017-12-02T23:27:35.954Z,41.87
2017-12-02T23:30:01.785Z,41.85
2017-12-02T23:32:27.554Z,41.79
2017-12-02T23:34:53.348Z,41.48
2017-12-02T23:37:19.231Z,42.19
2017-12-02T23:39:45.044Z,42.32
2017-12-02T23:42:10.809Z,41.78
2017-12-02T23:44:36.667Z,42.56
2017-12-02T23:47:02.448Z,42.00
2017-12-02T23:49:28.247Z,41.42
2017-12-02T23:51:54.047Z,41.91
2017-12-02T23:54:19.831Z,42.59
2017-12-02T23:56:45.632Z,42.06
2017-12-02T23:59:11.403Z,41.79
